Time;durP1;ratioP1;P1;durP2;ratioP2;P2;SDS_P1;SDS_P2;PMS_P1;PMS_P2;Temp;Humidity;BMP_temperature;BMP_pressure;BME280_temperature;BME280_humidity;BME280_pressure;Samples;Min_cycle;Max_cycle;Signal;HPM_P1;HPM_P2
2023/10/15 00:01:55;;;;;;;5.38;2.70;;;25.30;57.10;;;;;;6228718;27;80330;-63
2023/10/15 00:04:55;;;;;;;4.30;2.78;;;25.30;57.10;;;;;;6216417;28;80526;-62
2023/10/15 00:07:57;;;;;;;4.22;2.78;;;25.30;57.10;;;;;;6209255;28;82628;-62
2023/10/15 00:10:58;;;;;;;5.72;1.92;;;25.40;57.20;;;;;;6203882;28;82064;-64
2023/10/15 00:13:59;;;;;;;3.53;2.08;;;25.40;56.70;;;;;;6213077;28;82415;-64
2023/10/15 00:17:01;;;;;;;6.30;2.08;;;25.30;56.90;;;;;;6226475;27;80431;-64
2023/10/15 00:20:03;;;;;;;8.25;2.05;;;25.30;56.90;;;;;;6211944;28;80827;-64
2023/10/15 00:23:06;;;;;;;4.57;1.80;;;25.30;56.90;;;;;;6209660;28;80526;-64
2023/10/15 00:26:16;;;;;;;5.38;2.30;;;25.30;56.70;;;;;;6204580;28;80598;-62
2023/10/15 00:29:24;;;;;;;4.40;2.17;;;25.30;56.80;;;;;;6221629;28;80720;-62
2023/10/15 00:32:25;;;;;;;4.38;2.00;;;25.30;56.60;;;;;;6202834;27;81203;-62
2023/10/15 00:35:25;;;;;;;4.20;2.40;;;25.30;56.70;;;;;;6204405;28;81780;-62
2023/10/15 00:38:26;;;;;;;3.83;1.98;;;25.30;56.80;;;;;;6207822;28;80974;-62
2023/10/15 00:41:27;;;;;;;3.88;2.28;;;25.30;56.60;;;;;;6219069;28;83442;-61
2023/10/15 00:44:27;;;;;;;3.92;2.17;;;25.30;56.80;;;;;;6208035;28;80764;-62
2023/10/15 00:47:34;;;;;;;2.97;2.08;;;25.30;56.90;;;;;;6203590;28;83353;-61
2023/10/15 00:50:38;;;;;;;3.15;2.10;;;25.30;57.00;;;;;;6216409;28;81401;-62
2023/10/15 00:53:47;;;;;;;5.18;1.98;;;25.30;57.10;;;;;;6207115;28;81291;-63
2023/10/15 00:56:48;;;;;;;4.75;2.45;;;25.30;57.00;;;;;;6220668;27;85684;-62
2023/10/15 00:59:49;;;;;;;5.57;2.03;;;25.30;57.00;;;;;;6226038;27;80283;-60
2023/10/15 01:02:51;;;;;;;4.65;2.20;;;25.30;57.00;;;;;;6227814;28;85785;-63
2023/10/15 01:05:59;;;;;;;4.20;1.85;;;25.30;56.90;;;;;;6225767;28;80134;-65
2023/10/15 01:09:02;;;;;;;6.32;2.60;;;25.30;57.10;;;;;;6211614;28;81876;-64
2023/10/15 01:12:19;;;;;;;3.28;2.03;;;25.30;57.20;;;;;;6204089;28;83207;-64
2023/10/15 01:15:19;;;;;;;4.78;2.13;;;25.30;57.10;;;;;;6221568;28;80259;-64
2023/10/15 01:18:20;;;;;;;4.75;1.90;;;25.30;57.00;;;;;;6214756;28;80515;-63
2023/10/15 01:21:20;;;;;;;5.78;2.45;;;25.30;56.90;;;;;;6211169;28;80290;-61
2023/10/15 01:24:22;;;;;;;3.72;2.05;;;25.30;56.90;;;;;;6214450;28;83868;-63
2023/10/15 01:27:30;;;;;;;5.05;1.90;;;25.30;56.90;;;;;;6225966;27;80703;-62
2023/10/15 01:30:36;;;;;;;5.28;2.40;;;25.30;56.90;;;;;;6223840;27;86515;-60
2023/10/15 01:33:46;;;;;;;3.65;1.85;;;25.30;56.80;;;;;;6224081;28;80342;-61
2023/10/15 01:36:47;;;;;;;3.25;1.92;;;25.30;56.80;;;;;;6210841;28;81365;-60
2023/10/15 01:39:48;;;;;;;3.92;2.13;;;25.30;57.40;;;;;;6226255;27;81019;-60
2023/10/15 01:42:53;;;;;;;4.13;2.22;;;25.30;56.60;;;;;;6225874;27;80326;-61
2023/10/15 01:45:57;;;;;;;;;;;25.30;56.60;;;;;;6225433;27;80294;-61
2023/10/15 01:48:58;;;;;;;5.78;2.00;;;25.30;56.40;;;;;;6230882;27;80832;-60
2023/10/15 01:52:23;;;;;;;5.32;2.10;;;25.30;56.50;;;;;;6224809;27;80085;-62
2023/10/15 01:55:28;;;;;;;5.55;2.38;;;25.30;56.40;;;;;;6224931;27;80690;-62
2023/10/15 01:58:32;;;;;;;11.88;3.83;;;25.30;56.40;;;;;;6223932;28;81518;-63
2023/10/15 02:01:37;;;;;;;3.75;2.25;;;25.30;56.50;;;;;;6222347;28;83403;-64
2023/10/15 02:04:42;;;;;;;4.63;2.25;;;25.30;56.40;;;;;;6224443;27;83112;-63
2023/10/15 02:07:42;;;;;;;5.57;2.45;;;25.30;56.10;;;;;;6225576;27;81474;-63
2023/10/15 02:10:47;;;;;;;4.32;2.17;;;25.20;56.10;;;;;;6230578;28;81601;-65
2023/10/15 02:13:47;;;;;;;5.72;2.03;;;25.30;56.20;;;;;;6225954;27;80340;-63
2023/10/15 02:16:51;;;;;;;3.67;2.28;;;25.30;56.10;;;;;;6237477;28;81600;-63
2023/10/15 02:19:55;;;;;;;5.45;2.35;;;25.30;56.10;;;;;;6223489;28;83563;-62
2023/10/15 02:22:57;;;;;;;5.70;2.38;;;25.20;56.00;;;;;;6224955;27;81067;-62
2023/10/15 02:25:58;;;;;;;9.75;3.05;;;25.20;56.10;;;;;;6240619;27;80498;-63
2023/10/15 02:29:07;;;;;;;3.42;1.90;;;25.20;56.10;;;;;;6225037;27;81727;-62
2023/10/15 02:32:21;;;;;;;5.70;2.22;;;25.20;55.90;;;;;;6240707;27;83277;-61
2023/10/15 02:35:24;;;;;;;2.95;1.83;;;25.20;56.00;;;;;;6210593;28;81611;-63
2023/10/15 02:38:26;;;;;;;3.80;2.00;;;25.20;55.90;;;;;;6211777;28;80317;-63
2023/10/15 02:41:40;;;;;;;4.40;1.92;;;25.20;56.20;;;;;;6209082;28;80591;-62
2023/10/15 02:44:42;;;;;;;2.80;1.97;;;25.20;56.20;;;;;;6201288;28;81625;-63
2023/10/15 02:47:48;;;;;;;4.82;2.10;;;25.20;56.20;;;;;;6205874;28;81639;-63
2023/10/15 02:51:00;;;;;;;;;;;25.20;56.10;;;;;;6204974;28;80464;-62
2023/10/15 02:54:18;;;;;;;3.85;1.83;;;25.20;56.30;;;;;;6208096;28;79142;-62
2023/10/15 02:57:21;;;;;;;4.57;2.10;;;25.20;56.20;;;;;;6203481;28;81477;-62
2023/10/15 03:03:37;;;;;;;5.53;2.20;;;25.20;56.70;;;;;;6223110;27;85202;-62
2023/10/15 03:06:41;;;;;;;4.75;1.70;;;25.20;56.90;;;;;;6218759;28;81778;-60
2023/10/15 03:09:43;;;;;;;5.07;2.40;;;25.30;57.30;;;;;;6212093;28;80912;-61
2023/10/15 03:12:44;;;;;;;6.68;2.40;;;25.20;57.20;;;;;;6204715;28;81294;-64
2023/10/15 03:15:51;;;;;;;3.28;2.15;;;25.30;57.20;;;;;;6213765;28;80616;-65
2023/10/15 03:18:52;;;;;;;3.00;1.92;;;25.20;57.20;;;;;;6199419;28;80751;-64
2023/10/15 03:21:58;;;;;;;4.25;1.77;;;25.20;57.10;;;;;;6213844;28;82469;-64
2023/10/15 03:24:59;;;;;;;5.10;1.88;;;25.30;57.10;;;;;;6215304;27;82847;-62
2023/10/15 03:28:00;;;;;;;3.53;2.08;;;25.20;57.10;;;;;;6211352;28;82944;-70
2023/10/15 03:31:01;;;;;;;4.68;2.28;;;25.30;56.90;;;;;;6223612;28;80520;-61
2023/10/15 03:37:02;;;;;;;5.78;2.10;;;25.20;56.60;;;;;;6209652;28;81855;-60
2023/10/15 03:40:11;;;;;;;4.70;2.10;;;25.20;56.60;;;;;;6225282;28;81951;-62
2023/10/15 03:43:20;;;;;;;4.20;2.22;;;25.30;57.00;;;;;;6218890;27;81966;-60
2023/10/15 03:46:21;;;;;;;5.57;2.70;;;25.20;57.00;;;;;;6224219;28;80377;-59
2023/10/15 03:49:27;;;;;;;4.28;2.20;;;25.20;57.00;;;;;;6228718;27;80878;-55
2023/10/15 03:52:27;;;;;;;5.65;2.10;;;25.20;57.10;;;;;;6223123;28;80435;-59
2023/10/15 03:55:28;;;;;;;5.28;2.42;;;25.30;57.10;;;;;;6216765;28;81759;-60
2023/10/15 03:58:28;;;;;;;7.15;2.13;;;25.30;56.80;;;;;;6210244;28;80508;-59
2023/10/15 04:01:30;;;;;;;7.30;2.75;;;25.30;56.90;;;;;;6211022;28;81103;-59
2023/10/15 04:04:30;;;;;;;8.52;2.70;;;25.30;56.80;;;;;;6221312;27;82210;-60
2023/10/15 04:07:31;;;;;;;4.88;2.08;;;25.20;57.10;;;;;;6213696;28;83642;-61
2023/10/15 04:10:35;;;;;;;7.10;1.92;;;25.30;57.10;;;;;;6211153;28;80268;-61
2023/10/15 04:13:35;;;;;;;7.22;2.75;;;25.30;57.30;;;;;;6204721;28;82636;-60
2023/10/15 04:16:36;;;;;;;8.63;2.88;;;25.20;57.30;;;;;;6227587;28;83033;-60
2023/10/15 04:19:36;;;;;;;6.22;2.83;;;25.20;57.30;;;;;;6230316;27;80873;-60
2023/10/15 04:22:44;;;;;;;7.80;2.45;;;25.20;57.20;;;;;;6219871;27;80693;-62
2023/10/15 04:25:47;;;;;;;7.00;2.22;;;25.20;57.00;;;;;;6223455;28;81493;-58
2023/10/15 04:28:52;;;;;;;7.15;2.80;;;25.20;57.10;;;;;;6219785;28;81009;-59
2023/10/15 04:32:00;;;;;;;5.85;2.05;;;25.30;57.10;;;;;;6224709;28;84151;-65
2023/10/15 04:35:08;;;;;;;4.05;1.85;;;25.30;56.60;;;;;;6216809;27;81430;-62
2023/10/15 04:38:09;;;;;;;5.20;2.70;;;25.20;56.70;;;;;;6215628;27;80310;-63
2023/10/15 04:41:21;;;;;;;12.13;3.30;;;25.30;56.90;;;;;;6223079;27;80920;-63
2023/10/15 04:44:43;;;;;;;5.75;2.20;;;25.30;57.10;;;;;;6210641;27;81570;-64
2023/10/15 04:47:42;;;;;;;9.48;2.20;;;25.30;56.80;;;;;;6213956;28;81211;-64
2023/10/15 04:50:45;;;;;;;3.25;1.80;;;25.20;57.30;;;;;;6218066;28;81487;-64
2023/10/15 04:53:49;;;;;;;5.10;2.45;;;25.30;56.90;;;;;;6226914;28;81883;-64
2023/10/15 04:56:49;;;;;;;10.13;2.38;;;25.20;56.60;;;;;;6219401;27;80365;-60
2023/10/15 04:59:50;;;;;;;4.72;2.38;;;25.20;56.90;;;;;;6219622;27;83430;-60
2023/10/15 05:02:52;;;;;;;11.43;2.88;;;25.20;57.20;;;;;;6218054;27;81268;-63
2023/10/15 05:05:53;;;;;;;11.32;2.80;;;25.20;58.40;;;;;;6225040;27;80689;-61
2023/10/15 05:08:53;;;;;;;10.38;2.70;;;25.20;58.40;;;;;;6222081;27;80566;-59
2023/10/15 05:11:54;;;;;;;9.30;2.78;;;25.20;58.40;;;;;;6220179;28;80818;-60
2023/10/15 05:14:55;;;;;;;11.52;2.58;;;25.20;59.00;;;;;;6220084;27;81106;-61
2023/10/15 05:17:55;;;;;;;7.55;2.80;;;25.20;59.50;;;;;;6210790;28;80708;-63
2023/10/15 05:20:56;;;;;;;14.98;2.80;;;25.30;59.00;;;;;;6213958;28;80348;-62
2023/10/15 05:23:56;;;;;;;10.50;2.83;;;25.20;59.10;;;;;;6226609;27;81705;-61
2023/10/15 05:26:57;;;;;;;10.20;2.40;;;25.30;58.80;;;;;;6211105;28;80536;-65
2023/10/15 05:29:57;;;;;;;8.90;2.95;;;25.30;58.50;;;;;;6214985;28;81400;-67
2023/10/15 05:33:01;;;;;;;9.10;2.45;;;25.30;58.60;;;;;;6227258;27;83373;-68
2023/10/15 05:36:01;;;;;;;10.60;2.80;;;25.30;58.10;;;;;;6223813;28;85851;-64
2023/10/15 05:39:03;;;;;;;9.18;2.15;;;25.30;57.70;;;;;;6228884;28;80782;-66
2023/10/15 05:42:07;;;;;;;7.20;2.20;;;25.20;58.00;;;;;;6220800;28;80839;-64
2023/10/15 05:45:08;;;;;;;9.65;2.40;;;25.20;57.70;;;;;;6219980;27;83440;-64
2023/10/15 05:48:08;;;;;;;9.38;2.60;;;25.30;57.70;;;;;;6221599;28;80620;-60
2023/10/15 05:51:09;;;;;;;8.63;2.58;;;25.30;57.90;;;;;;6216443;28;80454;-63
2023/10/15 05:54:10;;;;;;;16.50;2.72;;;25.20;58.50;;;;;;6222458;28;81005;-62
2023/10/15 05:57:10;;;;;;;11.40;3.58;;;25.30;57.80;;;;;;6223169;28;80813;-62
2023/10/15 06:00:26;;;;;;;13.82;5.18;;;25.20;58.30;;;;;;6215640;27;80966;-68
2023/10/15 06:03:26;;;;;;;19.27;4.73;;;25.20;58.20;;;;;;6216747;27;87466;-65
2023/10/15 06:06:27;;;;;;;17.98;7.40;;;25.30;58.90;;;;;;6234027;27;81875;-64
2023/10/15 06:09:27;;;;;;;13.50;6.07;;;25.30;59.80;;;;;;6229295;27;82091;-65
2023/10/15 06:12:28;;;;;;;23.23;5.18;;;25.30;59.70;;;;;;6223195;28;80509;-62
2023/10/15 06:15:28;;;;;;;12.68;4.20;;;25.30;59.80;;;;;;6224348;28;80466;-77
2023/10/15 06:18:30;;;;;;;12.18;4.40;;;25.30;60.50;;;;;;6231796;28;80313;-69
2023/10/15 06:21:30;;;;;;;13.05;4.22;;;25.30;59.80;;;;;;6225267;28;80487;-70
2023/10/15 06:24:31;;;;;;;7.35;3.00;;;25.20;60.00;;;;;;6224338;28;84927;-65
2023/10/15 06:27:31;;;;;;;7.90;3.55;;;25.30;59.90;;;;;;6222326;28;82818;-66
2023/10/15 06:30:32;;;;;;;8.82;3.55;;;25.30;59.70;;;;;;6214014;28;80554;-69
2023/10/15 06:33:32;;;;;;;11.65;3.10;;;25.30;59.40;;;;;;6225076;27;81678;-66
2023/10/15 06:36:33;;;;;;;6.57;3.13;;;25.20;58.50;;;;;;6224258;27;82796;-70
2023/10/15 06:39:33;;;;;;;7.65;2.97;;;25.30;58.20;;;;;;6220396;27;80719;-71
2023/10/15 06:42:33;;;;;;;9.38;3.20;;;25.20;58.10;;;;;;6215646;28;80702;-68
2023/10/15 06:45:34;;;;;;;15.43;3.03;;;25.20;58.30;;;;;;6219643;28;80541;-70
2023/10/15 06:48:35;;;;;;;8.82;3.85;;;25.20;59.00;;;;;;6206494;28;80407;-66
2023/10/15 06:51:35;;;;;;;5.72;2.40;;;25.10;57.10;;;;;;6223065;28;80452;-68
2023/10/15 06:54:36;;;;;;;9.60;2.50;;;25.10;57.10;;;;;;6224552;28;81408;-68
2023/10/15 06:57:38;;;;;;;9.35;2.60;;;25.10;56.70;;;;;;6211715;28;80992;-63
2023/10/15 07:00:39;;;;;;;25.85;3.97;;;25.20;56.50;;;;;;6224370;28;80544;-76
2023/10/15 07:03:39;;;;;;;8.65;2.50;;;25.20;56.30;;;;;;6222370;27;80683;-74
2023/10/15 07:06:40;;;;;;;5.90;2.33;;;25.20;55.80;;;;;;6219581;28;80491;-76
2023/10/15 07:09:41;;;;;;;8.75;2.58;;;25.20;55.80;;;;;;6227865;28;80483;-68
2023/10/15 07:12:41;;;;;;;9.77;4.18;;;25.20;56.00;;;;;;6219632;28;83178;-74
2023/10/15 07:15:42;;;;;;;22.52;3.38;;;25.20;55.20;;;;;;6217619;28;81316;-74
2023/10/15 07:18:42;;;;;;;7.82;2.53;;;25.20;54.90;;;;;;6222778;27;81428;-76
2023/10/15 07:21:43;;;;;;;10.10;2.33;;;25.20;54.70;;;;;;6223603;27;81045;-70
2023/10/15 07:24:43;;;;;;;6.80;2.42;;;25.10;56.60;;;;;;6202291;28;80451;-71
2023/10/15 07:27:45;;;;;;;9.77;2.28;;;25.10;55.20;;;;;;6205540;28;80579;-71
2023/10/15 07:30:46;;;;;;;7.60;2.28;;;25.10;55.50;;;;;;6233658;28;81934;-72
2023/10/15 07:33:46;;;;;;;7.25;1.92;;;25.10;57.60;;;;;;6203783;28;83112;-75
2023/10/15 07:36:48;;;;;;;13.77;3.03;;;25.10;55.90;;;;;;6228161;27;81633;-73
2023/10/15 07:39:48;;;;;;;8.80;2.60;;;25.20;55.00;;;;;;6209409;28;88668;-73
2023/10/15 07:42:49;;;;;;;11.65;2.13;;;25.20;54.20;;;;;;6212332;27;83774;-67
2023/10/15 07:45:49;;;;;;;7.95;2.75;;;25.30;54.30;;;;;;6218913;28;80997;-61
2023/10/15 07:48:51;;;;;;;5.78;2.28;;;25.30;52.10;;;;;;6215102;28;82107;-70
2023/10/15 07:51:51;;;;;;;5.70;2.15;;;25.20;53.20;;;;;;6214233;28;82333;-66
2023/10/15 07:54:52;;;;;;;10.30;2.45;;;25.20;55.10;;;;;;6227968;28;81337;-63
2023/10/15 07:57:52;;;;;;;10.88;2.80;;;25.30;54.90;;;;;;6228930;27;82153;-69
2023/10/15 08:00:53;;;;;;;6.32;2.08;;;25.30;53.10;;;;;;6220868;28;80360;-74
2023/10/15 08:03:55;;;;;;;7.43;2.33;;;25.30;53.10;;;;;;6226582;27;80708;-71
2023/10/15 08:06:55;;;;;;;13.57;2.60;;;25.30;52.00;;;;;;6226463;27;80911;-72
2023/10/15 08:09:57;;;;;;;4.97;1.80;;;25.30;52.20;;;;;;6212947;28;80862;-75
2023/10/15 08:12:58;;;;;;;9.02;2.70;;;25.30;51.60;;;;;;6222641;27;80425;-66
2023/10/15 08:15:58;;;;;;;7.00;2.47;;;25.20;51.00;;;;;;6223524;27;80657;-67
2023/10/15 08:18:59;;;;;;;13.45;2.30;;;25.20;49.80;;;;;;6221728;28;82212;-66
2023/10/15 08:22:00;;;;;;;5.35;2.20;;;25.10;49.20;;;;;;6211763;27;85635;-59
2023/10/15 08:25:00;;;;;;;9.07;2.15;;;25.20;49.10;;;;;;6226750;28;80657;-59
2023/10/15 08:28:02;;;;;;;7.00;2.35;;;25.10;48.80;;;;;;6206245;28;86502;-59
2023/10/15 08:31:02;;;;;;;7.22;1.98;;;25.10;49.40;;;;;;6227230;28;90464;-59
2023/10/15 08:34:03;;;;;;;6.38;2.20;;;25.10;49.80;;;;;;6221916;27;80522;-59
2023/10/15 08:37:04;;;;;;;4.55;1.92;;;25.10;49.60;;;;;;6222810;27;80563;-60
2023/10/15 08:40:05;;;;;;;4.50;2.10;;;25.20;49.80;;;;;;6214066;28;80539;-61
2023/10/15 08:43:06;;;;;;;12.30;4.10;;;25.20;51.20;;;;;;6218983;27;84329;-62
2023/10/15 08:46:09;;;;;;;18.80;7.28;;;25.10;49.50;;;;;;6216275;28;80905;-60
2023/10/15 08:49:11;;;;;;;41.08;18.30;;;25.20;50.20;;;;;;6230133;28;81000;-62
2023/10/15 08:52:12;;;;;;;46.05;22.13;;;25.10;51.40;;;;;;6220398;28;83667;-63
2023/10/15 08:55:13;;;;;;;42.17;17.42;;;25.10;50.40;;;;;;6231989;27;84506;-62
2023/10/15 08:58:14;;;;;;;27.65;11.13;;;25.10;50.90;;;;;;6210819;28;83018;-68
2023/10/15 09:01:14;;;;;;;22.73;9.43;;;25.10;48.00;;;;;;6227996;27;83394;-65
2023/10/15 09:04:15;;;;;;;14.20;5.20;;;24.90;48.10;;;;;;6222062;27;82900;-64
2023/10/15 09:07:16;;;;;;;13.25;4.80;;;24.90;47.90;;;;;;6227143;27;82983;-63
2023/10/15 09:10:17;;;;;;;20.95;4.80;;;24.90;47.40;;;;;;6224870;28;80686;-68
2023/10/15 09:13:19;;;;;;;8.68;2.88;;;24.80;46.40;;;;;;6218944;28;80621;-61
2023/10/15 09:16:20;;;;;;;6.22;2.78;;;24.70;46.10;;;;;;6226601;28;80448;-60
2023/10/15 09:19:20;;;;;;;7.07;2.75;;;24.70;47.00;;;;;;6223301;27;80487;-72
2023/10/15 09:22:21;;;;;;;9.38;2.90;;;24.70;47.00;;;;;;6218091;28;80893;-77
2023/10/15 09:25:22;;;;;;;10.65;2.63;;;24.70;46.20;;;;;;6211685;28;80109;-77
2023/10/15 09:28:23;;;;;;;3.55;1.77;;;24.70;45.80;;;;;;6223783;28;81661;-74
2023/10/15 09:31:25;;;;;;;6.85;1.95;;;24.70;46.80;;;;;;6233517;27;80269;-71
2023/10/15 09:34:26;;;;;;;4.78;1.92;;;24.60;45.50;;;;;;6221877;27;80666;-70
2023/10/15 09:37:28;;;;;;;9.77;2.33;;;24.70;47.20;;;;;;6192648;27;82567;-59
2023/10/15 09:40:31;;;;;;;5.50;2.35;;;24.70;47.10;;;;;;6209140;28;80896;-61
2023/10/15 09:43:35;;;;;;;7.22;2.35;;;24.70;46.80;;;;;;6209936;27;82820;-62
2023/10/15 09:46:36;;;;;;;9.98;2.97;;;24.60;46.70;;;;;;6207364;28;81637;-60
2023/10/15 09:49:36;;;;;;;8.55;2.42;;;24.70;48.30;;;;;;6207859;28;83170;-62
2023/10/15 09:52:37;;;;;;;10.32;2.95;;;24.70;48.50;;;;;;6205884;28;81459;-61
2023/10/15 09:55:38;;;;;;;10.20;2.85;;;24.70;48.70;;;;;;6221248;27;81099;-66
2023/10/15 09:58:38;;;;;;;8.07;2.92;;;24.70;46.90;;;;;;6226880;27;80948;-63
2023/10/15 10:01:39;;;;;;;10.70;2.95;;;24.70;45.40;;;;;;6215783;27;80510;-62
2023/10/15 10:04:43;;;;;;;8.68;2.65;;;24.70;45.80;;;;;;6212421;28;81498;-61
2023/10/15 10:07:47;;;;;;;8.40;2.22;;;24.70;46.40;;;;;;6213356;28;81471;-58
2023/10/15 10:10:48;;;;;;;6.82;2.20;;;24.70;46.80;;;;;;6203635;27;81098;-61
2023/10/15 10:13:49;;;;;;;9.65;2.47;;;24.70;46.30;;;;;;6223555;27;80705;-61
2023/10/15 10:16:49;;;;;;;4.40;1.58;;;24.60;46.20;;;;;;6224735;28;81438;-60
2023/10/15 10:19:53;;;;;;;5.68;1.40;;;24.70;47.10;;;;;;6220469;28;80507;-60
2023/10/15 10:22:53;;;;;;;6.53;2.00;;;24.60;46.40;;;;;;6224383;28;80642;-59
2023/10/15 10:25:58;;;;;;;6.50;1.85;;;24.60;45.70;;;;;;6224860;28;80470;-60
2023/10/15 10:29:01;;;;;;;4.50;2.03;;;24.60;45.80;;;;;;6220936;28;80676;-59
2023/10/15 10:32:01;;;;;;;4.68;2.47;;;24.60;45.90;;;;;;6230748;28;80495;-63
2023/10/15 10:35:02;;;;;;;6.90;2.08;;;24.50;44.90;;;;;;6230265;28;82007;-61
2023/10/15 10:38:10;;;;;;;13.43;2.33;;;24.50;44.70;;;;;;6230323;27;85914;-61
2023/10/15 10:41:13;;;;;;;4.10;1.83;;;24.50;43.80;;;;;;6217759;28;81848;-61
2023/10/15 10:44:13;;;;;;;9.30;2.45;;;24.50;44.50;;;;;;6234792;27;81946;-60
2023/10/15 10:47:14;;;;;;;11.52;3.28;;;24.50;44.30;;;;;;6230251;28;80608;-65
2023/10/15 10:50:19;;;;;;;4.47;1.90;;;24.50;44.20;;;;;;6220838;28;80429;-64
2023/10/15 10:53:20;;;;;;;6.83;2.10;;;24.50;43.40;;;;;;6218386;28;81777;-65
2023/10/15 10:56:20;;;;;;;4.65;2.15;;;24.50;43.40;;;;;;6226922;28;83481;-63
2023/10/15 10:59:21;;;;;;;9.95;2.42;;;24.50;43.00;;;;;;6228181;28;80143;-64
2023/10/15 11:02:22;;;;;;;8.20;2.28;;;24.40;43.20;;;;;;6225870;28;80441;-64
2023/10/15 11:05:23;;;;;;;15.45;2.58;;;24.40;42.70;;;;;;6223542;28;84720;-63
2023/10/15 11:08:24;;;;;;;3.70;1.58;;;24.40;42.70;;;;;;6177339;28;87587;-63
2023/10/15 11:11:24;;;;;;;7.00;2.10;;;24.40;42.90;;;;;;6215754;27;83063;-63
2023/10/15 11:14:25;;;;;;;9.27;2.85;;;24.40;43.20;;;;;;6212272;27;80785;-62
2023/10/15 11:17:25;;;;;;;6.80;2.25;;;24.40;42.70;;;;;;6205839;28;80486;-63
2023/10/15 11:20:27;;;;;;;6.28;2.70;;;24.40;42.30;;;;;;6201780;28;81406;-67
2023/10/15 11:23:27;;;;;;;5.82;2.10;;;24.30;41.50;;;;;;6224812;27;81922;-59
2023/10/15 11:26:31;;;;;;;5.32;1.85;;;24.20;40.10;;;;;;6205876;28;81491;-69
2023/10/15 11:29:33;;;;;;;6.28;2.03;;;24.00;39.50;;;;;;6216490;28;80392;-66
2023/10/15 11:32:33;;;;;;;8.55;2.58;;;24.00;40.70;;;;;;6200372;28;87107;-63
2023/10/15 11:35:34;;;;;;;9.10;1.80;;;23.90;40.30;;;;;;6209357;28;83600;-64
2023/10/15 11:38:35;;;;;;;25.98;3.55;;;23.90;40.80;;;;;;6211417;28;81799;-63
2023/10/15 11:41:36;;;;;;;13.45;2.55;;;24.00;41.30;;;;;;6208384;28;80661;-67
2023/10/15 11:44:37;;;;;;;5.32;1.70;;;24.10;41.70;;;;;;6216536;27;82061;-62
2023/10/15 11:47:41;;;;;;;13.00;2.35;;;24.00;39.20;;;;;;6216871;28;83123;-63
2023/10/15 11:50:44;;;;;;;7.35;1.70;;;23.80;39.20;;;;;;6204795;28;82583;-62
2023/10/15 11:53:44;;;;;;;7.35;1.70;;;23.90;39.50;;;;;;6223180;28;80778;-62
2023/10/15 11:56:45;;;;;;;4.35;1.58;;;23.90;39.60;;;;;;6225922;28;81026;-63
2023/10/15 11:59:45;;;;;;;5.80;1.67;;;23.90;39.50;;;;;;6223924;28;80767;-64
2023/10/15 12:02:46;;;;;;;5.95;2.22;;;23.90;39.60;;;;;;6222594;28;87387;-67
2023/10/15 12:05:46;;;;;;;6.28;1.67;;;23.80;39.70;;;;;;6224085;28;80940;-66
2023/10/15 12:08:48;;;;;;;5.20;1.42;;;23.90;39.10;;;;;;6224975;27;82973;-66
2023/10/15 12:11:49;;;;;;;4.18;1.67;;;23.90;40.00;;;;;;6248428;27;80299;-66
2023/10/15 12:14:50;;;;;;;7.05;2.00;;;23.80;39.60;;;;;;6237236;27;80848;-66
2023/10/15 12:17:50;;;;;;;4.05;1.67;;;23.80;39.80;;;;;;6189956;28;83350;-64
2023/10/15 12:20:52;;;;;;;5.13;1.77;;;23.80;40.90;;;;;;6211170;28;87514;-61
2023/10/15 12:23:52;;;;;;;6.78;1.73;;;23.80;40.80;;;;;;6208010;27;84125;-62
2023/10/15 12:26:53;;;;;;;5.60;2.00;;;23.90;41.10;;;;;;6213173;28;81029;-62
2023/10/15 12:29:54;;;;;;;8.07;1.70;;;23.80;40.50;;;;;;6211350;28;80543;-65
2023/10/15 12:32:55;;;;;;;4.45;1.70;;;23.80;40.90;;;;;;6219910;28;80847;-63
2023/10/15 12:35:59;;;;;;;6.25;1.75;;;23.80;40.60;;;;;;6222348;27;82996;-63
2023/10/15 12:38:59;;;;;;;9.45;2.03;;;23.90;40.60;;;;;;6213697;28;80603;-66
2023/10/15 12:42:00;;;;;;;8.55;2.20;;;24.00;40.50;;;;;;6223893;27;80133;-66
2023/10/15 12:45:00;;;;;;;5.65;1.80;;;24.00;40.90;;;;;;6227882;27;80489;-68
2023/10/15 12:48:01;;;;;;;6.18;2.45;;;24.10;40.60;;;;;;6219239;28;83501;-66
2023/10/15 12:51:02;;;;;;;5.65;2.35;;;24.00;41.20;;;;;;6226690;28;81328;-70
2023/10/15 12:54:05;;;;;;;6.53;1.83;;;24.00;41.50;;;;;;6224099;28;81563;-64
2023/10/15 12:57:06;;;;;;;4.88;1.77;;;24.00;41.40;;;;;;6227850;28;80984;-65
2023/10/15 13:00:19;;;;;;;9.70;2.42;;;24.00;41.30;;;;;;6227690;28;81880;-64
2023/10/15 13:03:20;;;;;;;9.95;3.58;;;24.00;41.50;;;;;;6227186;27;80741;-63
2023/10/15 13:06:20;;;;;;;7.82;2.63;;;24.00;41.10;;;;;;6227431;27;80355;-63
2023/10/15 13:09:25;;;;;;;7.95;2.20;;;23.90;41.40;;;;;;6220447;28;80994;-63
2023/10/15 13:12:26;;;;;;;8.53;2.40;;;23.90;41.20;;;;;;6215321;27;87052;-64
2023/10/15 13:15:26;;;;;;;7.45;2.15;;;23.90;41.60;;;;;;6229264;28;80465;-64
2023/10/15 13:18:28;;;;;;;7.50;2.83;;;23.90;41.30;;;;;;6212578;28;80568;-63
2023/10/15 13:21:28;;;;;;;6.13;2.55;;;23.90;41.20;;;;;;6214715;27;83048;-63
2023/10/15 13:24:29;;;;;;;6.40;2.17;;;24.00;41.10;;;;;;6222415;28;81024;-64
2023/10/15 13:27:30;;;;;;;7.05;2.33;;;24.00;40.90;;;;;;6225149;28;80936;-66
2023/10/15 13:30:30;;;;;;;6.47;2.15;;;24.00;40.40;;;;;;6224118;28;80472;-65
2023/10/15 13:33:31;;;;;;;7.07;1.95;;;24.10;40.20;;;;;;6224252;27;83948;-67
2023/10/15 13:36:31;;;;;;;10.57;2.40;;;24.10;40.10;;;;;;6233970;27;80593;-64
2023/10/15 13:39:32;;;;;;;7.32;2.13;;;24.10;40.10;;;;;;6232532;27;82984;-65
2023/10/15 13:42:32;;;;;;;6.30;1.95;;;24.10;40.40;;;;;;6234092;27;80676;-66
2023/10/15 13:45:33;;;;;;;6.60;2.58;;;24.10;41.10;;;;;;6232676;28;81839;-65
2023/10/15 13:48:33;;;;;;;6.40;2.65;;;24.00;41.00;;;;;;6222525;28;82777;-66
2023/10/15 13:51:34;;;;;;;8.68;2.53;;;24.00;41.30;;;;;;6222341;27;81644;-65
2023/10/15 13:54:34;;;;;;;6.72;2.10;;;23.90;41.70;;;;;;6218840;27;81002;-67
2023/10/15 13:57:37;;;;;;;8.48;2.10;;;23.90;41.80;;;;;;6227646;27;80307;-65
2023/10/15 14:00:38;;;;;;;5.38;1.85;;;23.80;41.60;;;;;;6221551;27;85417;-64
2023/10/15 14:03:38;;;;;;;5.22;2.28;;;23.80;41.30;;;;;;6216540;27;80743;-67
2023/10/15 14:06:39;;;;;;;4.82;2.30;;;23.80;41.40;;;;;;6219057;28;80965;-64
2023/10/15 14:09:39;;;;;;;7.20;1.80;;;23.80;40.60;;;;;;6223614;28;80462;-64
2023/10/15 14:12:40;;;;;;;5.57;2.00;;;23.80;40.20;;;;;;6222646;27;80986;-65
2023/10/15 14:15:40;;;;;;;4.80;1.90;;;23.80;40.00;;;;;;6224744;27;80482;-66
2023/10/15 14:18:41;;;;;;;6.30;1.92;;;23.70;40.10;;;;;;6213190;27;84780;-63
2023/10/15 14:21:43;;;;;;;8.25;1.65;;;23.80;41.10;;;;;;6235599;27;80120;-64
2023/10/15 14:24:46;;;;;;;4.15;1.70;;;23.90;39.90;;;;;;6229623;28;80546;-62
2023/10/15 14:27:47;;;;;;;8.77;2.05;;;24.00;39.50;;;;;;6226712;28;80972;-61
2023/10/15 14:30:49;;;;;;;4.60;1.75;;;24.00;40.40;;;;;;6215243;28;81110;-62
2023/10/15 14:33:50;;;;;;;5.03;1.85;;;24.10;40.40;;;;;;6225560;28;80908;-61
2023/10/15 14:36:53;;;;;;;5.63;1.60;;;24.10;40.00;;;;;;6205461;28;84579;-60
2023/10/15 14:39:54;;;;;;;8.27;1.98;;;24.20;40.60;;;;;;6207351;28;84862;-60
2023/10/15 14:42:55;;;;;;;11.20;1.95;;;24.30;40.40;;;;;;6218637;28;81542;-60
2023/10/15 14:45:56;;;;;;;6.65;1.80;;;24.40;41.00;;;;;;6217606;28;81196;-61
2023/10/15 14:48:57;;;;;;;10.52;2.00;;;24.50;40.80;;;;;;6213106;28;83107;-62
2023/10/15 14:51:58;;;;;;;9.52;2.08;;;24.50;40.90;;;;;;6218827;28;80410;-62
2023/10/15 14:54:59;;;;;;;5.38;1.90;;;24.60;40.60;;;;;;6205726;28;80555;-62
2023/10/15 14:57:59;;;;;;;6.03;1.67;;;24.60;40.50;;;;;;6222315;28;81068;-62
2023/10/15 15:01:00;;;;;;;7.70;2.13;;;24.70;40.50;;;;;;6223881;28;82125;-63
2023/10/15 15:04:00;;;;;;;6.47;1.50;;;24.70;40.50;;;;;;6218447;28;80682;-60
2023/10/15 15:07:01;;;;;;;5.88;1.70;;;24.70;41.30;;;;;;6210731;28;82222;-75
2023/10/15 15:10:02;;;;;;;14.95;1.63;;;24.70;40.90;;;;;;6216726;28;81655;-66
2023/10/15 15:13:02;;;;;;;12.50;1.92;;;24.70;41.50;;;;;;6214749;28;81198;-64
2023/10/15 15:16:03;;;;;;;6.38;2.53;;;24.60;41.60;;;;;;6224965;28;86188;-63
2023/10/15 15:19:05;;;;;;;6.63;1.63;;;24.60;41.60;;;;;;6214858;27;83404;-62
2023/10/15 15:22:06;;;;;;;8.50;2.22;;;24.60;41.70;;;;;;6207184;28;80996;-63
2023/10/15 15:25:06;;;;;;;6.00;2.30;;;24.60;41.60;;;;;;6212562;28;81806;-62
2023/10/15 15:28:06;;;;;;;7.13;1.90;;;24.60;41.50;;;;;;6194632;28;80264;-61
2023/10/15 15:31:09;;;;;;;10.30;2.40;;;24.60;41.40;;;;;;6218931;27;83661;-61
2023/10/15 15:34:12;;;;;;;8.43;2.53;;;24.60;41.40;;;;;;6224560;28;80088;-61
2023/10/15 15:37:13;;;;;;;6.47;2.33;;;24.60;41.40;;;;;;6224802;27;80821;-60
2023/10/15 15:40:13;;;;;;;6.50;2.63;;;24.60;41.30;;;;;;6227712;27;81594;-60
2023/10/15 15:43:14;;;;;;;9.10;2.30;;;24.60;41.60;;;;;;6227777;28;80938;-63
2023/10/15 15:46:14;;;;;;;4.80;1.90;;;24.60;41.40;;;;;;6224571;28;80824;-64
2023/10/15 15:49:15;;;;;;;8.02;2.22;;;24.60;41.50;;;;;;6223351;28;80685;-62
2023/10/15 15:52:15;;;;;;;6.45;1.95;;;24.60;41.80;;;;;;6225897;28;81177;-65